createdAt,value
2019-04-07T00:00:09.030Z,9.70
2019-04-07T00:02:37.674Z,9.70
2019-04-07T00:05:13.599Z,9.70
2019-04-07T00:07:37.884Z,9.70
2019-04-07T00:10:09.970Z,9.70
2019-04-07T00:12:38.789Z,9.70
2019-04-07T00:15:08.277Z,9.60
2019-04-07T00:17:37.614Z,9.60
2019-04-07T00:20:07.301Z,9.60
2019-04-07T00:22:36.039Z,9.60
2019-04-07T00:25:05.271Z,9.70
2019-04-07T00:27:34.820Z,9.70
2019-04-07T00:30:04.148Z,9.70
2019-04-07T00:32:32.834Z,9.70
2019-04-07T00:35:03.077Z,9.70
2019-04-07T00:37:32.755Z,9.70
2019-04-07T00:40:02.289Z,9.70
2019-04-07T00:42:31.111Z,9.80
2019-04-07T00:47:48.613Z,9.80
2019-04-07T00:50:17.496Z,9.80
2019-04-07T00:52:46.146Z,9.70
2019-04-07T00:55:14.789Z,9.80
2019-04-07T00:57:44.049Z,9.70
2019-04-07T01:00:16.568Z,9.70
2019-04-07T01:02:44.924Z,9.80
2019-04-07T01:05:13.821Z,9.80
2019-04-07T01:07:42.414Z,9.80
2019-04-07T01:10:11.690Z,9.90
2019-04-07T01:12:41.135Z,9.80
2019-04-07T01:15:11.015Z,9.70
2019-04-07T01:17:39.831Z,9.70
2019-04-07T01:20:09.675Z,9.60
2019-04-07T01:22:38.168Z,9.60
2019-04-07T01:25:08.823Z,9.50
2019-04-07T01:27:37.434Z,9.40
2019-04-07T01:30:07.183Z,9.40
2019-04-07T01:32:36.753Z,9.30
2019-04-07T01:35:07.482Z,9.30
2019-04-07T01:37:36.265Z,9.20
2019-04-07T01:40:06.513Z,9.20
2019-04-07T01:42:39.955Z,9.10
2019-04-07T01:45:16.021Z,9.10
2019-04-07T01:48:02.497Z,9.20
2019-04-07T01:50:32.791Z,9.40
2019-04-07T01:53:15.235Z,9.40
2019-04-07T01:55:54.222Z,9.20
2019-04-07T01:58:39.304Z,9.00
2019-04-07T02:01:12.203Z,8.80
2019-04-07T02:03:48.449Z,8.70
2019-04-07T02:06:22.107Z,8.70
2019-04-07T02:08:55.722Z,8.60
2019-04-07T02:11:32.467Z,8.60
2019-04-07T02:14:18.240Z,8.30
2019-04-07T02:16:57.808Z,8.20
2019-04-07T02:19:28.571Z,8.40
2019-04-07T02:22:13.632Z,8.50
2019-04-07T02:25:01.951Z,8.40
2019-04-07T02:27:44.689Z,8.50
2019-04-07T02:30:18.231Z,8.50
2019-04-07T02:32:48.462Z,8.50
2019-04-07T02:35:34.549Z,8.60
2019-04-07T02:38:08.283Z,8.60
2019-04-07T02:40:41.032Z,8.50
2019-04-07T02:43:27.699Z,8.50
2019-04-07T02:45:57.971Z,8.40
2019-04-07T02:48:28.473Z,8.40
2019-04-07T02:50:59.662Z,8.30
2019-04-07T02:53:30.851Z,8.40
2019-04-07T02:56:07.995Z,8.60
2019-04-07T02:58:54.966Z,8.70
2019-04-07T03:01:35.085Z,8.80
2019-04-07T03:04:22.952Z,8.80
2019-04-07T03:06:54.731Z,8.80
2019-04-07T03:09:32.153Z,8.90
2019-04-07T03:12:05.908Z,9.00
2019-04-07T03:14:37.121Z,8.90
2019-04-07T03:17:08.247Z,8.80
2019-04-07T03:19:56.695Z,8.80
2019-04-07T03:22:26.961Z,8.90
2019-04-07T03:25:13.324Z,8.90
2019-04-07T03:28:00.465Z,9.00
2019-04-07T03:30:49.433Z,9.10
2019-04-07T03:33:22.684Z,9.20
2019-04-07T03:36:01.164Z,9.20
2019-04-07T03:38:28.916Z,9.30
2019-04-07T03:40:59.158Z,9.40
2019-04-07T03:43:35.865Z,9.30
2019-04-07T03:46:06.400Z,9.30
2019-04-07T03:48:36.978Z,9.30
2019-04-07T03:51:24.416Z,9.30
2019-04-07T03:54:07.209Z,9.20
2019-04-07T03:56:37.767Z,9.40
2019-04-07T03:59:07.972Z,9.50
2019-04-07T04:01:47.883Z,9.50
2019-04-07T04:04:21.052Z,9.70
2019-04-07T04:06:57.902Z,9.80
2019-04-07T04:09:44.206Z,9.90
2019-04-07T04:12:29.988Z,10.30
2019-04-07T04:15:06.775Z,10.70
2019-04-07T04:17:35.491Z,10.90
2019-04-07T04:20:06.888Z,10.80
2019-04-07T04:22:35.940Z,10.50
2019-04-07T04:25:07.063Z,10.30
2019-04-07T04:27:36.764Z,10.10
2019-04-07T04:30:10.240Z,10.10
2019-04-07T04:32:39.529Z,10.30
2019-04-07T04:35:09.370Z,10.40
2019-04-07T04:37:46.022Z,10.40
2019-04-07T04:40:09.228Z,10.30
2019-04-07T04:42:38.208Z,9.80
2019-04-07T04:45:08.594Z,9.80
2019-04-07T04:47:37.672Z,10.00
2019-04-07T04:50:08.179Z,10.20
2019-04-07T04:52:38.201Z,9.90
2019-04-07T04:55:07.258Z,9.60
2019-04-07T04:57:36.288Z,9.40
2019-04-07T05:00:07.001Z,9.30
2019-04-07T05:02:35.892Z,9.20
2019-04-07T05:05:09.152Z,9.40
2019-04-07T05:07:49.827Z,9.60
2019-04-07T05:10:08.110Z,9.50
2019-04-07T05:12:37.004Z,9.40
2019-04-07T05:15:07.731Z,9.40
2019-04-07T05:17:36.948Z,9.40
2019-04-07T05:20:06.852Z,9.30
2019-04-07T05:22:35.951Z,9.40
2019-04-07T05:25:07.071Z,9.30
2019-04-07T05:27:35.612Z,9.40
2019-04-07T05:30:07.656Z,9.80
2019-04-07T05:32:36.849Z,10.00
2019-04-07T05:35:07.833Z,10.10
2019-04-07T05:37:36.673Z,10.10
2019-04-07T05:40:05.973Z,10.30
2019-04-07T05:42:34.478Z,10.40
2019-04-07T05:45:04.080Z,10.80
2019-04-07T05:47:33.033Z,10.80
2019-04-07T05:50:03.318Z,10.80
2019-04-07T05:52:33.532Z,11.10
2019-04-07T05:55:02.680Z,10.90
2019-04-07T05:57:34.604Z,10.60
2019-04-07T06:00:02.439Z,10.30
2019-04-07T06:02:33.936Z,10.30
2019-04-07T06:05:01.634Z,10.30
2019-04-07T06:07:31.788Z,10.50
2019-04-07T06:10:01.049Z,10.30
2019-04-07T06:12:29.646Z,10.10
2019-04-07T06:14:58.513Z,9.90
2019-04-07T06:17:27.713Z,10.10
2019-04-07T06:19:57.725Z,10.00
2019-04-07T06:22:26.291Z,9.90
2019-04-07T06:24:54.851Z,9.90
2019-04-07T06:27:24.005Z,9.80
2019-04-07T06:29:57.169Z,9.70
2019-04-07T06:32:24.623Z,9.70
2019-04-07T06:34:53.138Z,9.80
2019-04-07T06:37:25.858Z,9.90
2019-04-07T06:39:52.522Z,9.90
2019-04-07T06:42:22.042Z,10.10
2019-04-07T06:44:52.200Z,10.10
2019-04-07T06:47:22.714Z,10.20
2019-04-07T06:50:14.176Z,10.30
2019-04-07T06:52:45.751Z,10.60
2019-04-07T06:55:33.039Z,10.90
2019-04-07T06:58:19.745Z,11.30
2019-04-07T07:01:06.799Z,11.80
2019-04-07T07:03:39.644Z,12.40
2019-04-07T07:06:26.757Z,13.20
2019-04-07T07:09:07.250Z,13.50
2019-04-07T07:11:42.775Z,13.50
2019-04-07T07:14:35.432Z,13.70
2019-04-07T07:17:06.392Z,13.80
2019-04-07T07:19:42.398Z,13.90
2019-04-07T07:22:16.535Z,14.00
2019-04-07T07:24:47.125Z,14.00
2019-04-07T07:27:16.379Z,14.10
2019-04-07T07:29:46.768Z,14.40
2019-04-07T07:32:15.933Z,14.40
2019-04-07T07:34:44.910Z,14.20
2019-04-07T07:37:13.476Z,13.50
2019-04-07T07:39:44.651Z,13.00
2019-04-07T07:42:12.244Z,13.10
2019-04-07T07:44:40.757Z,13.30
2019-04-07T07:47:09.292Z,13.60
2019-04-07T07:49:40.974Z,13.20
2019-04-07T07:52:07.964Z,12.60
2019-04-07T07:54:36.831Z,11.80
2019-04-07T07:57:05.365Z,11.90
2019-04-07T07:59:37.889Z,11.80
2019-04-07T08:02:04.157Z,11.90
2019-04-07T08:04:33.398Z,11.70
2019-04-07T08:07:02.701Z,11.80
2019-04-07T08:09:31.784Z,12.20
2019-04-07T08:12:02.450Z,12.80
2019-04-07T08:14:31.514Z,13.10
2019-04-07T08:17:02.406Z,13.50
2019-04-07T08:19:30.862Z,14.00
2019-04-07T08:22:00.638Z,14.10
2019-04-07T08:24:29.515Z,14.20
2019-04-07T08:26:59.070Z,14.40
2019-04-07T08:29:28.117Z,14.80
2019-04-07T08:31:56.625Z,14.90
2019-04-07T08:34:25.492Z,14.40
2019-04-07T08:36:54.142Z,14.70
2019-04-07T08:39:25.623Z,15.20
2019-04-07T08:41:52.940Z,15.30
2019-04-07T08:44:21.574Z,15.80
2019-04-07T08:46:50.831Z,15.90
2019-04-07T08:49:23.606Z,15.80
2019-04-07T08:51:50.550Z,15.90
2019-04-07T08:54:19.887Z,16.30
2019-04-07T08:56:48.680Z,16.30
2019-04-07T08:59:17.313Z,16.20
2019-04-07T09:01:46.962Z,16.50
2019-04-07T09:04:17.626Z,17.00
2019-04-07T09:06:47.452Z,17.50
2019-04-07T09:09:16.867Z,17.90
2019-04-07T09:11:45.950Z,18.20
2019-04-07T09:14:15.956Z,18.30
2019-04-07T09:17:03.383Z,18.20
2019-04-07T09:19:39.783Z,18.40
2019-04-07T09:22:29.830Z,18.00
2019-04-07T09:25:03.463Z,17.70
2019-04-07T09:27:50.354Z,17.90
2019-04-07T09:30:37.931Z,18.10
2019-04-07T09:33:24.276Z,18.30
2019-04-07T09:36:03.562Z,18.00
2019-04-07T09:38:36.829Z,18.40
2019-04-07T09:41:17.188Z,18.80
2019-04-07T09:43:50.745Z,18.90
2019-04-07T09:46:24.201Z,19.00
2019-04-07T09:49:11.075Z,19.20
2019-04-07T09:51:41.604Z,18.50
2019-04-07T09:54:12.244Z,18.50
2019-04-07T09:56:48.649Z,18.30
2019-04-07T09:59:30.821Z,18.20
2019-04-07T10:02:17.002Z,18.60
2019-04-07T10:04:55.863Z,18.90
2019-04-07T10:07:34.886Z,18.80
2019-04-07T10:10:22.670Z,18.60
2019-04-07T10:12:56.603Z,18.80
2019-04-07T10:15:42.013Z,19.00
2019-04-07T10:18:18.073Z,19.40
2019-04-07T10:20:53.883Z,19.40
2019-04-07T10:23:24.208Z,19.50
2019-04-07T10:25:54.937Z,19.40
2019-04-07T10:28:25.575Z,19.20
2019-04-07T10:31:13.787Z,19.20
2019-04-07T10:33:58.746Z,19.50
2019-04-07T10:36:38.697Z,19.80
2019-04-07T10:39:13.017Z,19.20
2019-04-07T10:42:00.304Z,19.20
2019-04-07T10:44:36.709Z,19.50
2019-04-07T10:47:19.423Z,19.40
2019-04-07T10:50:08.506Z,19.20
2019-04-07T10:52:53.334Z,19.20
2019-04-07T10:55:29.299Z,18.80
2019-04-07T10:57:59.789Z,19.00
2019-04-07T11:00:45.471Z,20.10
2019-04-07T11:03:31.986Z,21.00
2019-04-07T11:06:05.176Z,21.40
2019-04-07T11:08:35.623Z,21.80
2019-04-07T11:11:21.384Z,20.90
2019-04-07T11:14:09.745Z,20.60
2019-04-07T11:16:56.216Z,20.90
2019-04-07T11:19:44.587Z,20.60
2019-04-07T11:22:30.920Z,20.30
2019-04-07T11:25:04.123Z,20.40
2019-04-07T11:27:40.877Z,20.80
2019-04-07T11:30:21.273Z,21.00
2019-04-07T11:32:54.437Z,21.20
2019-04-07T11:35:29.888Z,21.80
2019-04-07T11:38:15.514Z,22.70
2019-04-07T11:40:51.017Z,23.30
2019-04-07T11:43:20.815Z,22.90
2019-04-07T11:46:07.223Z,22.20
2019-04-07T11:48:37.340Z,21.80
2019-04-07T11:51:22.763Z,22.30
2019-04-07T11:53:58.864Z,23.40
2019-04-07T11:56:45.938Z,23.50
2019-04-07T11:59:26.338Z,24.10
2019-04-07T12:01:56.704Z,24.00
2019-04-07T12:04:45.143Z,23.70
2019-04-07T12:07:20.237Z,23.30
2019-04-07T12:10:02.967Z,23.30
2019-04-07T12:12:51.467Z,22.60
2019-04-07T12:15:30.578Z,23.10
2019-04-07T12:18:00.783Z,23.20
2019-04-07T12:20:33.715Z,22.70
2019-04-07T12:23:20.383Z,22.90
2019-04-07T12:26:06.179Z,23.50
2019-04-07T12:28:52.507Z,23.70
2019-04-07T12:31:28.157Z,23.90
2019-04-07T12:34:13.872Z,24.30
2019-04-07T12:36:47.911Z,25.10
2019-04-07T12:39:21.207Z,25.40
2019-04-07T12:42:08.546Z,25.80
2019-04-07T12:44:39.896Z,24.10
2019-04-07T12:47:11.347Z,21.90
2019-04-07T12:49:50.289Z,22.30
2019-04-07T12:52:36.692Z,22.90
2019-04-07T12:55:17.814Z,23.30
2019-04-07T12:57:55.523Z,23.40
2019-04-07T13:00:28.884Z,23.10
2019-04-07T13:03:07.916Z,23.10
2019-04-07T13:05:38.043Z,22.50
2019-04-07T13:08:11.171Z,22.60
2019-04-07T13:10:44.872Z,22.70
2019-04-07T13:13:15.942Z,22.70
2019-04-07T13:15:52.196Z,23.00
2019-04-07T13:18:25.438Z,22.80
2019-04-07T13:21:04.425Z,22.50
2019-04-07T13:23:40.581Z,22.50
2019-04-07T13:26:11.040Z,22.00
2019-04-07T13:28:53.217Z,21.90
2019-04-07T13:31:24.454Z,22.00
2019-04-07T13:33:59.592Z,22.00
2019-04-07T13:36:26.818Z,22.00
2019-04-07T13:38:57.813Z,21.90
2019-04-07T13:41:38.607Z,21.90
2019-04-07T13:44:11.898Z,21.80
2019-04-07T13:46:45.226Z,21.70
2019-04-07T13:49:32.239Z,21.30
2019-04-07T13:52:19.321Z,21.10
2019-04-07T13:54:53.713Z,21.00
2019-04-07T13:57:29.694Z,21.40
2019-04-07T14:00:12.870Z,21.40
2019-04-07T14:02:46.476Z,20.90
2019-04-07T14:05:34.666Z,20.80
2019-04-07T14:08:07.086Z,21.10
2019-04-07T14:10:53.961Z,21.20
2019-04-07T14:13:27.072Z,21.50
2019-04-07T14:16:15.908Z,21.20
2019-04-07T14:18:50.271Z,20.90
2019-04-07T14:21:37.432Z,21.00
2019-04-07T14:24:23.915Z,21.10
2019-04-07T14:27:05.438Z,21.50
2019-04-07T14:29:52.430Z,21.50
2019-04-07T14:32:23.121Z,21.30
2019-04-07T14:35:10.445Z,20.60
2019-04-07T14:37:52.753Z,20.30
2019-04-07T14:40:26.250Z,20.30
2019-04-07T14:43:02.553Z,20.30
2019-04-07T14:45:42.798Z,20.40
2019-04-07T14:48:17.382Z,20.50
2019-04-07T14:50:50.603Z,20.70
2019-04-07T14:53:23.578Z,20.90
2019-04-07T14:55:53.771Z,21.10
2019-04-07T14:58:39.383Z,21.30
2019-04-07T15:01:25.839Z,21.60
2019-04-07T15:03:54.606Z,22.00
2019-04-07T15:06:23.937Z,22.00
2019-04-07T15:08:55.277Z,21.60
2019-04-07T15:11:32.350Z,21.20
2019-04-07T15:14:01.854Z,20.90
2019-04-07T15:16:31.736Z,20.60
2019-04-07T15:19:01.054Z,20.20
2019-04-07T15:21:29.878Z,19.80
2019-04-07T15:24:04.074Z,19.50
2019-04-07T15:26:32.544Z,19.20
2019-04-07T15:29:04.653Z,19.00
2019-04-07T15:31:31.997Z,18.90
2019-04-07T15:34:01.021Z,18.80
2019-04-07T15:36:31.118Z,18.70
2019-04-07T15:38:59.705Z,18.50
2019-04-07T15:41:28.407Z,18.50
2019-04-07T15:43:57.313Z,18.40
2019-04-07T15:46:26.765Z,18.10
2019-04-07T15:48:56.889Z,18.00
2019-04-07T15:51:26.220Z,17.80
2019-04-07T15:53:55.395Z,17.50
2019-04-07T15:56:24.178Z,17.30
2019-04-07T15:58:52.992Z,17.20
2019-04-07T16:01:21.731Z,17.10
2019-04-07T16:03:53.430Z,16.90
2019-04-07T16:06:21.351Z,16.80
2019-04-07T16:08:49.857Z,16.80
2019-04-07T16:11:19.011Z,16.80
2019-04-07T16:13:47.944Z,16.80
2019-04-07T16:16:16.551Z,16.90
2019-04-07T16:18:45.495Z,16.90
2019-04-07T16:21:14.390Z,17.00
2019-04-07T16:23:43.297Z,16.90
2019-04-07T16:26:11.898Z,17.00
2019-04-07T16:28:43.267Z,17.00
2019-04-07T16:31:10.646Z,16.80
2019-04-07T16:33:39.790Z,16.70
2019-04-07T16:36:08.776Z,16.50
2019-04-07T16:38:37.340Z,16.30
2019-04-07T16:41:06.602Z,16.10
2019-04-07T16:43:37.676Z,16.00
2019-04-07T16:46:05.607Z,16.10
2019-04-07T16:48:38.645Z,16.00
2019-04-07T16:51:04.450Z,15.90
2019-04-07T16:53:36.427Z,15.80
2019-04-07T16:56:04.029Z,15.70
2019-04-07T16:58:35.408Z,15.70
2019-04-07T17:01:03.217Z,15.60
2019-04-07T17:03:31.691Z,15.40
2019-04-07T17:06:01.668Z,15.30
2019-04-07T17:08:30.440Z,15.20
2019-04-07T17:10:59.549Z,15.10
2019-04-07T17:13:37.041Z,15.20
2019-04-07T17:15:59.401Z,15.10
2019-04-07T17:18:39.450Z,15.10
2019-04-07T17:21:16.629Z,15.00
2019-04-07T17:23:45.750Z,14.90
2019-04-07T17:26:14.594Z,14.80
2019-04-07T17:28:45.999Z,14.70
2019-04-07T17:31:14.259Z,14.50
2019-04-07T17:33:42.900Z,14.40
2019-04-07T17:36:15.456Z,14.50
2019-04-07T17:38:59.412Z,14.50
2019-04-07T17:41:31.483Z,14.30
2019-04-07T17:44:21.871Z,14.20
2019-04-07T17:47:05.789Z,14.30
2019-04-07T17:49:50.954Z,14.10
2019-04-07T17:52:22.056Z,14.00
2019-04-07T17:55:04.298Z,13.90
2019-04-07T17:57:37.371Z,13.90
2019-04-07T18:00:11.746Z,13.90
2019-04-07T18:02:47.662Z,13.90
2019-04-07T18:05:14.794Z,13.70
2019-04-07T18:07:54.345Z,13.70
2019-04-07T18:10:40.889Z,13.60
2019-04-07T18:13:11.935Z,13.60
2019-04-07T18:15:42.405Z,13.60
2019-04-07T18:18:13.280Z,13.50
2019-04-07T18:20:59.690Z,13.60
2019-04-07T18:23:39.678Z,13.60
2019-04-07T18:26:16.523Z,13.60
2019-04-07T18:29:03.796Z,13.50
2019-04-07T18:31:40.061Z,13.40
2019-04-07T18:34:08.812Z,13.40
2019-04-07T18:36:42.049Z,13.30
2019-04-07T18:39:18.602Z,13.30
2019-04-07T18:41:49.406Z,13.20
2019-04-07T18:44:22.915Z,13.00
2019-04-07T18:47:08.963Z,13.00
2019-04-07T18:49:48.448Z,13.10
2019-04-07T18:52:22.291Z,13.00
2019-04-07T18:54:51.084Z,13.00
2019-04-07T18:57:27.059Z,13.00
2019-04-07T19:00:13.593Z,13.00
2019-04-07T19:02:45.985Z,12.90
2019-04-07T19:05:34.274Z,12.90
2019-04-07T19:08:04.626Z,12.70
2019-04-07T19:10:51.558Z,12.60
2019-04-07T19:13:33.529Z,12.60
2019-04-07T19:16:04.067Z,12.60
2019-04-07T19:18:49.641Z,12.60
2019-04-07T19:21:20.432Z,12.60
2019-04-07T19:24:10.322Z,12.40
2019-04-07T19:26:44.374Z,12.10
2019-04-07T19:29:25.076Z,11.80
2019-04-07T19:31:59.714Z,11.70
2019-04-07T19:34:47.179Z,11.80
2019-04-07T19:37:19.339Z,11.80
2019-04-07T19:40:02.714Z,11.80
2019-04-07T19:42:48.174Z,11.90
2019-04-07T19:45:17.598Z,11.90
2019-04-07T19:48:13.240Z,11.90
2019-04-07T19:50:46.143Z,12.00
2019-04-07T19:53:20.255Z,12.00
2019-04-07T19:55:58.157Z,11.90
2019-04-07T19:58:44.925Z,11.90
2019-04-07T20:01:30.113Z,11.80
2019-04-07T20:04:16.670Z,11.90
2019-04-07T20:06:46.778Z,11.90
2019-04-07T20:09:26.145Z,11.90
2019-04-07T20:12:12.856Z,11.90
2019-04-07T20:14:51.985Z,12.00
2019-04-07T20:17:30.790Z,11.90
2019-04-07T20:20:13.637Z,11.80
2019-04-07T20:23:00.347Z,11.70
2019-04-07T20:25:46.988Z,11.70
2019-04-07T20:28:15.271Z,11.70
2019-04-07T20:31:03.769Z,11.80
2019-04-07T20:33:52.183Z,11.80
2019-04-07T20:36:26.437Z,11.70
2019-04-07T20:39:09.358Z,11.70
2019-04-07T20:41:56.793Z,11.80
2019-04-07T20:44:36.619Z,11.80
2019-04-07T20:47:07.900Z,11.80
2019-04-07T20:49:41.841Z,11.70
2019-04-07T20:52:16.673Z,11.80
2019-04-07T20:54:50.904Z,11.70
2019-04-07T20:57:27.291Z,11.70
2019-04-07T21:00:03.574Z,11.70
2019-04-07T21:03:06.465Z,11.70
2019-04-07T21:05:23.997Z,11.70
2019-04-07T21:07:54.836Z,11.80
2019-04-07T21:10:30.994Z,11.80
2019-04-07T21:13:18.307Z,11.80
2019-04-07T21:15:55.348Z,11.80
2019-04-07T21:18:31.350Z,11.60
2019-04-07T21:21:03.178Z,11.40
2019-04-07T21:23:50.874Z,11.30
2019-04-07T21:26:21.287Z,11.20
2019-04-07T21:29:08.156Z,11.30
2019-04-07T21:31:38.280Z,11.20
2019-04-07T21:34:08.852Z,11.20
2019-04-07T21:36:41.126Z,11.00
2019-04-07T21:39:12.753Z,11.00
2019-04-07T21:41:52.108Z,11.00
2019-04-07T21:44:38.499Z,11.10
2019-04-07T21:47:12.147Z,11.00
2019-04-07T21:49:58.553Z,11.00
2019-04-07T21:52:34.593Z,10.80
2019-04-07T21:55:23.661Z,10.60
2019-04-07T21:58:03.115Z,10.50
2019-04-07T22:00:52.991Z,10.40
2019-04-07T22:03:39.537Z,10.50
2019-04-07T22:06:17.760Z,10.40
2019-04-07T22:08:53.958Z,10.60
2019-04-07T22:11:26.687Z,10.60
2019-04-07T22:13:53.391Z,10.70
2019-04-07T22:16:24.200Z,10.80
2019-04-07T22:18:53.269Z,10.80
2019-04-07T22:21:23.235Z,10.70
2019-04-07T22:23:52.306Z,10.70
2019-04-07T22:26:20.796Z,10.80
2019-04-07T22:28:49.425Z,11.00
2019-04-07T22:31:19.586Z,10.80
2019-04-07T22:33:48.052Z,10.90
2019-04-07T22:36:16.748Z,11.00
2019-04-07T22:38:45.563Z,10.90
2019-04-07T22:41:14.449Z,10.90
2019-04-07T22:43:43.458Z,10.90
2019-04-07T22:46:17.577Z,10.90
2019-04-07T22:48:42.246Z,10.90
2019-04-07T22:51:12.487Z,10.90
2019-04-07T22:53:41.307Z,10.70
2019-04-07T22:56:10.053Z,10.50
2019-04-07T22:58:38.551Z,10.70
2019-04-07T23:01:07.760Z,10.80
2019-04-07T23:03:36.966Z,10.90
2019-04-07T23:06:05.817Z,10.90
2019-04-07T23:08:35.035Z,10.80
2019-04-07T23:11:04.298Z,11.00
2019-04-07T23:13:33.074Z,11.00
2019-04-07T23:16:10.754Z,11.10
2019-04-07T23:18:31.816Z,11.10
2019-04-07T23:21:01.118Z,11.10
2019-04-07T23:23:30.921Z,11.00
2019-04-07T23:25:59.865Z,10.90
2019-04-07T23:28:28.777Z,10.80
2019-04-07T23:30:57.571Z,10.90
2019-04-07T23:33:26.134Z,10.80
2019-04-07T23:35:55.422Z,10.80
2019-04-07T23:38:24.288Z,10.80
2019-04-07T23:40:53.530Z,10.70
2019-04-07T23:43:22.135Z,10.70
2019-04-07T23:45:51.806Z,10.80
2019-04-07T23:48:20.274Z,10.60
2019-04-07T23:50:48.760Z,10.60
2019-04-07T23:53:53.826Z,10.60
2019-04-07T23:56:22.290Z,10.50
2019-04-07T23:58:50.758Z,10.50
